createdAt,value
2023-03-27T00:00:09.265Z,625.00
2023-03-27T00:00:19.274Z,624.91
2023-03-27T00:00:29.268Z,624.70
2023-03-27T00:00:39.261Z,624.69
2023-03-27T00:00:49.270Z,624.88
2023-03-27T00:00:59.284Z,624.86
2023-03-27T00:01:09.277Z,624.69
2023-03-27T00:01:19.271Z,624.81
2023-03-27T00:01:29.271Z,624.67
2023-03-27T00:01:39.270Z,624.64
2023-03-27T00:01:49.288Z,624.67
2023-03-27T00:01:59.291Z,624.68
2023-03-27T00:02:09.343Z,624.60
2023-03-27T00:02:19.401Z,624.25
2023-03-27T00:02:29.343Z,624.28
2023-03-27T00:02:39.349Z,624.50
2023-03-27T00:02:49.377Z,624.41
2023-03-27T00:02:59.367Z,624.82
2023-03-27T00:03:09.413Z,624.52
2023-03-27T00:03:29.353Z,624.32
2023-03-27T00:03:39.352Z,624.04
2023-03-27T00:03:49.823Z,624.11
2023-03-27T00:03:59.314Z,623.97
2023-03-27T00:04:09.357Z,623.56
2023-03-27T00:04:19.371Z,624.13
2023-03-27T00:04:29.281Z,623.63
2023-03-27T00:04:39.305Z,623.84
2023-03-27T00:04:49.277Z,624.11
2023-03-27T00:05:09.279Z,623.68
2023-03-27T00:05:19.284Z,623.82
2023-03-27T00:05:29.290Z,624.29
2023-03-27T00:05:39.289Z,623.78
2023-03-27T00:05:49.280Z,623.28
2023-03-27T00:05:59.294Z,623.37
2023-03-27T00:06:09.322Z,623.10
2023-03-27T00:06:19.289Z,623.27
2023-03-27T00:06:39.286Z,623.82
2023-03-27T00:06:49.304Z,623.48
2023-03-27T00:06:59.286Z,623.54
2023-03-27T00:07:09.285Z,623.20
2023-03-27T00:07:19.289Z,623.46
2023-03-27T00:07:29.292Z,623.33
2023-03-27T00:07:39.315Z,623.11
2023-03-27T00:07:49.293Z,623.41
2023-03-27T00:07:59.291Z,622.94
2023-03-27T00:08:09.345Z,623.65
2023-03-27T00:08:19.303Z,623.43
2023-03-27T00:08:29.307Z,622.99
2023-03-27T00:08:39.298Z,623.11
2023-03-27T00:08:49.309Z,623.10
2023-03-27T00:08:59.308Z,622.89
2023-03-27T00:09:09.318Z,623.10
2023-03-27T00:09:19.293Z,622.95
2023-03-27T00:09:29.882Z,622.79
2023-03-27T00:09:39.295Z,622.65
2023-03-27T00:09:49.353Z,622.82
2023-03-27T00:10:09.310Z,623.18
2023-03-27T00:10:19.301Z,623.01
2023-03-27T00:10:29.308Z,622.91
2023-03-27T00:10:39.303Z,622.79
2023-03-27T00:10:49.310Z,623.24
2023-03-27T00:10:59.314Z,622.52
2023-03-27T00:11:09.309Z,622.66
2023-03-27T00:11:19.312Z,622.66
2023-03-27T00:11:29.313Z,622.44
2023-03-27T00:11:39.309Z,622.41
2023-03-27T00:11:59.311Z,622.44
2023-03-27T00:12:09.325Z,622.63
2023-03-27T00:12:19.308Z,622.33
2023-03-27T00:12:29.314Z,622.32
2023-03-27T00:12:39.329Z,622.50
2023-03-27T00:12:49.312Z,622.06
2023-03-27T00:12:59.325Z,622.29
2023-03-27T00:13:09.313Z,621.89
2023-03-27T00:13:19.320Z,622.58
2023-03-27T00:13:29.328Z,621.59
2023-03-27T00:13:50.701Z,621.85
2023-03-27T00:13:59.321Z,622.09
2023-03-27T00:14:09.336Z,622.19
2023-03-27T00:14:19.322Z,622.34
2023-03-27T00:14:29.321Z,622.32
2023-03-27T00:14:39.320Z,622.27
2023-03-27T00:14:49.331Z,621.93
2023-03-27T00:14:59.329Z,620.67
2023-03-27T00:15:09.333Z,621.54
2023-03-27T00:15:19.323Z,621.66
2023-03-27T00:15:29.332Z,622.05
2023-03-27T00:15:39.328Z,622.48
2023-03-27T00:15:49.336Z,623.42
2023-03-27T00:15:59.332Z,622.27
2023-03-27T00:16:09.358Z,621.82
2023-03-27T00:16:19.401Z,621.72
2023-03-27T00:16:29.379Z,621.90
2023-03-27T00:16:39.526Z,621.53
2023-03-27T00:16:49.371Z,621.72
2023-03-27T00:16:59.406Z,621.67
2023-03-27T00:17:09.342Z,621.97
2023-03-27T00:17:19.342Z,622.01
2023-03-27T00:17:29.380Z,620.99
2023-03-27T00:17:39.377Z,621.78
2023-03-27T00:17:49.352Z,621.84
2023-03-27T00:17:59.379Z,621.49
2023-03-27T00:18:09.366Z,621.70
2023-03-27T00:18:19.352Z,621.38
2023-03-27T00:18:29.346Z,621.57
2023-03-27T00:18:39.348Z,621.43
2023-03-27T00:18:49.372Z,621.24
2023-03-27T00:18:59.348Z,621.14
2023-03-27T00:19:09.343Z,621.58
2023-03-27T00:19:19.338Z,621.18
2023-03-27T00:19:29.343Z,621.83
2023-03-27T00:19:39.345Z,621.41
2023-03-27T00:19:49.345Z,621.87
2023-03-27T00:19:59.362Z,621.72
2023-03-27T00:20:09.349Z,621.56
2023-03-27T00:20:19.352Z,621.20
2023-03-27T00:20:29.349Z,620.34
2023-03-27T00:20:39.350Z,621.22
2023-03-27T00:20:49.362Z,621.45
2023-03-27T00:20:59.352Z,621.65
2023-03-27T00:21:09.355Z,621.44
2023-03-27T00:21:19.421Z,621.68
2023-03-27T00:21:29.365Z,621.46
2023-03-27T00:21:39.361Z,621.30
2023-03-27T00:21:49.363Z,621.42
2023-03-27T00:21:59.355Z,621.56
2023-03-27T00:22:09.371Z,621.24
2023-03-27T00:22:19.361Z,621.29
2023-03-27T00:22:29.374Z,621.62
2023-03-27T00:22:39.358Z,620.92
2023-03-27T00:22:49.362Z,621.12
2023-03-27T00:22:59.360Z,622.08
2023-03-27T00:23:19.386Z,621.03
2023-03-27T00:23:29.367Z,621.34
2023-03-27T00:23:39.375Z,621.44
2023-03-27T00:23:49.373Z,621.73
2023-03-27T00:23:59.363Z,621.41
2023-03-27T00:24:09.360Z,621.04
2023-03-27T00:24:19.376Z,621.06
2023-03-27T00:24:29.369Z,620.97
2023-03-27T00:24:39.373Z,621.46
2023-03-27T00:24:49.371Z,621.44
2023-03-27T00:24:59.372Z,621.45
2023-03-27T00:25:09.367Z,620.97
2023-03-27T00:25:19.371Z,621.55
2023-03-27T00:25:29.378Z,621.67
2023-03-27T00:25:39.374Z,621.71
2023-03-27T00:25:49.379Z,621.99
2023-03-27T00:25:59.525Z,621.39
2023-03-27T00:26:09.369Z,621.25
2023-03-27T00:26:19.380Z,621.11
2023-03-27T00:26:29.377Z,621.05
2023-03-27T00:26:39.389Z,620.93
2023-03-27T00:26:49.383Z,620.84
2023-03-27T00:27:09.383Z,620.95
2023-03-27T00:27:19.383Z,621.00
2023-03-27T00:27:29.394Z,621.08
2023-03-27T00:27:39.382Z,621.44
2023-03-27T00:27:49.382Z,621.12
2023-03-27T00:27:59.384Z,620.94
2023-03-27T00:28:09.391Z,621.03
2023-03-27T00:28:19.386Z,620.86
2023-03-27T00:28:39.417Z,621.11
2023-03-27T00:28:49.389Z,620.71
2023-03-27T00:28:59.384Z,620.44
2023-03-27T00:29:09.392Z,620.29
2023-03-27T00:29:19.385Z,620.24
2023-03-27T00:29:29.417Z,620.35
2023-03-27T00:29:39.399Z,620.62
2023-03-27T00:29:49.387Z,620.67
2023-03-27T00:29:59.420Z,620.20
2023-03-27T00:30:09.391Z,620.52
2023-03-27T00:30:19.396Z,619.96
2023-03-27T00:30:29.406Z,619.74
2023-03-27T00:30:39.426Z,621.17
2023-03-27T00:30:49.424Z,620.40
2023-03-27T00:30:59.773Z,620.22
2023-03-27T00:31:09.457Z,620.06
2023-03-27T00:31:19.428Z,619.97
2023-03-27T00:31:29.523Z,620.64
2023-03-27T00:31:39.401Z,620.18
2023-03-27T00:31:49.407Z,619.93
2023-03-27T00:31:59.403Z,620.02
2023-03-27T00:32:09.408Z,619.44
2023-03-27T00:32:19.407Z,619.94
2023-03-27T00:32:29.462Z,620.13
2023-03-27T00:32:39.433Z,619.74
2023-03-27T00:32:49.420Z,619.66
2023-03-27T00:32:59.464Z,620.01
2023-03-27T00:33:09.433Z,620.35
2023-03-27T00:33:19.436Z,619.92
2023-03-27T00:33:39.412Z,619.57
2023-03-27T00:33:49.410Z,619.72
2023-03-27T00:33:59.411Z,619.76
2023-03-27T00:34:09.423Z,619.77
2023-03-27T00:34:19.409Z,619.90
2023-03-27T00:34:29.408Z,619.45
2023-03-27T00:34:39.414Z,620.12
2023-03-27T00:34:49.413Z,620.02
2023-03-27T00:34:59.416Z,619.70
2023-03-27T00:35:09.412Z,619.61
2023-03-27T00:35:19.472Z,619.88
2023-03-27T00:35:29.442Z,619.61
2023-03-27T00:35:39.490Z,619.73
2023-03-27T00:35:49.477Z,619.95
2023-03-27T00:35:59.476Z,619.34
2023-03-27T00:36:09.490Z,619.74
2023-03-27T00:36:19.421Z,619.90
2023-03-27T00:36:29.417Z,619.79
2023-03-27T00:36:39.436Z,619.30
2023-03-27T00:36:49.425Z,619.40
2023-03-27T00:37:09.434Z,619.68
2023-03-27T00:37:19.431Z,618.90
2023-03-27T00:37:29.440Z,619.45
2023-03-27T00:37:39.428Z,619.45
2023-03-27T00:37:49.453Z,619.13
2023-03-27T00:37:59.433Z,618.24
2023-03-27T00:38:09.464Z,619.27
2023-03-27T00:38:19.439Z,619.28
2023-03-27T00:38:39.543Z,619.21
2023-03-27T00:38:49.442Z,619.18
2023-03-27T00:38:59.445Z,619.05
2023-03-27T00:39:09.447Z,618.78
2023-03-27T00:39:19.460Z,619.25
2023-03-27T00:39:29.450Z,619.30
2023-03-27T00:39:49.454Z,618.63
2023-03-27T00:39:59.438Z,618.69
2023-03-27T00:40:09.448Z,618.91
2023-03-27T00:40:19.444Z,618.95
2023-03-27T00:40:29.449Z,618.58
2023-03-27T00:40:39.573Z,618.65
2023-03-27T00:40:49.504Z,619.37
2023-03-27T00:40:59.747Z,618.40
2023-03-27T00:41:09.482Z,618.67
2023-03-27T00:41:19.476Z,618.92
2023-03-27T00:41:29.451Z,618.17
2023-03-27T00:41:39.462Z,618.73
2023-03-27T00:41:49.458Z,618.51
2023-03-27T00:41:59.451Z,618.53
2023-03-27T00:42:19.450Z,618.33
2023-03-27T00:42:29.461Z,616.81
2023-03-27T00:42:39.455Z,618.05
2023-03-27T00:42:49.447Z,618.07
2023-03-27T00:42:59.476Z,618.20
2023-03-27T00:43:09.461Z,618.13
2023-03-27T00:43:19.457Z,618.13
2023-03-27T00:43:39.457Z,618.73
2023-03-27T00:43:49.469Z,618.35
2023-03-27T00:43:59.456Z,618.24
2023-03-27T00:44:09.457Z,618.27
2023-03-27T00:44:19.464Z,618.27
2023-03-27T00:44:29.458Z,618.14
2023-03-27T00:44:39.868Z,617.96
2023-03-27T00:44:49.460Z,618.12
2023-03-27T00:44:59.461Z,618.70
2023-03-27T00:45:09.461Z,617.99
2023-03-27T00:45:19.459Z,617.74
2023-03-27T00:45:29.458Z,618.19
2023-03-27T00:45:39.463Z,617.69
2023-03-27T00:45:49.569Z,617.64
2023-03-27T00:45:59.477Z,617.75
2023-03-27T00:46:09.498Z,617.93
2023-03-27T00:46:19.471Z,617.78
2023-03-27T00:46:29.526Z,617.46
2023-03-27T00:46:39.552Z,617.41
2023-03-27T00:46:49.539Z,617.55
2023-03-27T00:46:59.470Z,617.56
2023-03-27T00:47:09.474Z,617.54
2023-03-27T00:47:19.482Z,617.28
2023-03-27T00:47:29.535Z,617.81
2023-03-27T00:47:39.509Z,617.47
2023-03-27T00:47:49.528Z,618.31
2023-03-27T00:47:59.547Z,617.59
2023-03-27T00:48:19.475Z,617.39
2023-03-27T00:48:29.472Z,617.28
2023-03-27T00:48:39.473Z,617.29
2023-03-27T00:48:49.475Z,617.29
2023-03-27T00:48:59.479Z,617.34
2023-03-27T00:49:09.485Z,617.16
2023-03-27T00:49:19.484Z,617.14
2023-03-27T00:49:29.477Z,617.04
2023-03-27T00:49:39.490Z,617.12
2023-03-27T00:49:49.489Z,617.05
2023-03-27T00:49:59.484Z,617.01
2023-03-27T00:50:09.484Z,617.08
2023-03-27T00:50:19.487Z,616.99
2023-03-27T00:50:29.481Z,616.99
2023-03-27T00:50:39.490Z,616.85
2023-03-27T00:50:49.489Z,616.98
2023-03-27T00:50:59.521Z,616.77
2023-03-27T00:51:09.516Z,616.84
2023-03-27T00:51:19.495Z,616.79
2023-03-27T00:51:29.489Z,616.72
2023-03-27T00:51:39.494Z,616.39
2023-03-27T00:51:49.486Z,616.21
2023-03-27T00:51:59.492Z,617.60
2023-03-27T00:52:19.500Z,616.57
2023-03-27T00:52:29.515Z,616.79
2023-03-27T00:52:39.490Z,616.64
2023-03-27T00:52:49.489Z,616.74
2023-03-27T00:52:59.490Z,616.68
2023-03-27T00:53:09.493Z,616.62
2023-03-27T00:53:19.503Z,616.51
2023-03-27T00:53:39.495Z,616.79
2023-03-27T00:53:49.500Z,616.48
2023-03-27T00:53:59.497Z,616.47
2023-03-27T00:54:09.499Z,616.40
2023-03-27T00:54:19.494Z,616.45
2023-03-27T00:54:29.499Z,616.34
2023-03-27T00:54:39.498Z,616.48
2023-03-27T00:54:49.510Z,616.57
2023-03-27T00:54:59.511Z,615.44
2023-03-27T00:55:09.499Z,616.03
2023-03-27T00:55:19.506Z,616.19
2023-03-27T00:55:29.503Z,616.09
2023-03-27T00:55:39.504Z,616.43
2023-03-27T00:55:49.505Z,616.27
2023-03-27T00:55:59.508Z,616.30
2023-03-27T00:56:09.507Z,616.48
2023-03-27T00:56:19.504Z,616.41
2023-03-27T00:56:29.522Z,616.49
2023-03-27T00:56:39.525Z,617.69
2023-03-27T00:56:49.528Z,616.36
2023-03-27T00:56:59.560Z,616.39
2023-03-27T00:57:09.592Z,616.28
2023-03-27T00:57:29.526Z,616.39
2023-03-27T00:57:39.518Z,616.55
2023-03-27T00:57:49.519Z,616.76
2023-03-27T00:57:59.512Z,616.86
2023-03-27T00:58:09.513Z,616.08
2023-03-27T00:58:19.524Z,616.89
2023-03-27T00:58:39.527Z,617.06
2023-03-27T00:58:49.518Z,617.00
2023-03-27T00:58:59.541Z,615.96
2023-03-27T00:59:09.521Z,616.41
2023-03-27T00:59:19.520Z,616.29
2023-03-27T00:59:29.528Z,615.93
2023-03-27T00:59:39.522Z,616.17
2023-03-27T00:59:49.520Z,616.29
2023-03-27T00:59:59.522Z,615.58
2023-03-27T01:00:09.640Z,616.07
2023-03-27T01:00:19.527Z,616.36
2023-03-27T01:00:29.538Z,615.94
2023-03-27T01:00:39.522Z,615.82
2023-03-27T01:00:49.537Z,616.20
2023-03-27T01:00:59.564Z,616.18
2023-03-27T01:01:09.588Z,616.15
2023-03-27T01:01:19.631Z,616.30
2023-03-27T01:01:29.561Z,616.22
2023-03-27T01:01:39.560Z,616.21
2023-03-27T01:01:49.597Z,616.06
2023-03-27T01:02:09.551Z,616.26
2023-03-27T01:02:19.564Z,616.22
2023-03-27T01:02:29.608Z,616.21
2023-03-27T01:02:39.601Z,616.91
2023-03-27T01:02:49.616Z,616.51
2023-03-27T01:03:00.962Z,616.50
2023-03-27T01:03:09.659Z,616.46
2023-03-27T01:03:19.578Z,616.73
2023-03-27T01:03:39.650Z,616.41
2023-03-27T01:03:49.608Z,616.57
2023-03-27T01:03:59.544Z,616.09
2023-03-27T01:04:09.542Z,616.86
2023-03-27T01:04:19.540Z,616.61
2023-03-27T01:04:29.540Z,616.59
2023-03-27T01:04:39.549Z,616.45
2023-03-27T01:04:49.541Z,616.57
2023-03-27T01:04:59.546Z,616.53
2023-03-27T01:05:09.541Z,616.50
2023-03-27T01:05:19.547Z,616.09
2023-03-27T01:05:29.546Z,616.40
2023-03-27T01:05:39.554Z,616.09
2023-03-27T01:05:49.545Z,616.18
2023-03-27T01:05:59.572Z,616.25
2023-03-27T01:06:09.544Z,615.69
2023-03-27T01:06:19.564Z,615.38
2023-03-27T01:06:29.547Z,616.64
2023-03-27T01:06:49.548Z,616.06
2023-03-27T01:06:59.553Z,616.11
2023-03-27T01:07:09.552Z,616.46
2023-03-27T01:07:19.550Z,616.82
2023-03-27T01:07:29.550Z,616.52
2023-03-27T01:07:39.548Z,616.29
2023-03-27T01:08:01.308Z,616.20
2023-03-27T01:08:01.810Z,615.64
2023-03-27T01:08:09.581Z,616.46
2023-03-27T01:08:19.561Z,615.98
2023-03-27T01:08:29.552Z,615.80
2023-03-27T01:08:39.554Z,615.90
2023-03-27T01:08:49.568Z,616.25
2023-03-27T01:09:09.575Z,615.61
2023-03-27T01:09:20.363Z,616.58
2023-03-27T01:09:29.581Z,616.30
2023-03-27T01:09:39.574Z,615.83
2023-03-27T01:09:49.586Z,616.62
2023-03-27T01:09:59.596Z,616.25
2023-03-27T01:10:09.563Z,617.05
2023-03-27T01:10:19.566Z,616.56
2023-03-27T01:10:29.562Z,616.46
2023-03-27T01:10:39.566Z,616.13
2023-03-27T01:10:59.571Z,616.05
2023-03-27T01:11:09.571Z,616.07
2023-03-27T01:11:19.575Z,616.16
2023-03-27T01:11:29.580Z,616.30
2023-03-27T01:11:39.570Z,615.93
2023-03-27T01:11:49.566Z,615.80
2023-03-27T01:11:59.570Z,615.95
2023-03-27T01:12:09.584Z,616.52
2023-03-27T01:12:19.575Z,616.09
2023-03-27T01:12:39.585Z,616.14
2023-03-27T01:12:49.574Z,615.74
2023-03-27T01:12:59.583Z,615.29
2023-03-27T01:13:09.580Z,616.07
2023-03-27T01:13:19.581Z,616.00
2023-03-27T01:13:29.590Z,616.03
2023-03-27T01:13:39.592Z,616.18
2023-03-27T01:13:49.582Z,616.23
2023-03-27T01:13:59.581Z,616.50
2023-03-27T01:14:09.579Z,616.17
2023-03-27T01:14:19.598Z,615.71
2023-03-27T01:14:29.587Z,616.47
2023-03-27T01:14:39.600Z,614.87
2023-03-27T01:14:49.597Z,615.09
2023-03-27T01:14:59.591Z,615.70
2023-03-27T01:15:09.582Z,615.70
2023-03-27T01:15:19.598Z,615.42
2023-03-27T01:15:29.608Z,615.95
2023-03-27T01:15:49.722Z,616.00
2023-03-27T01:15:59.594Z,616.21
2023-03-27T01:16:09.630Z,616.24
2023-03-27T01:16:19.687Z,615.90
2023-03-27T01:16:29.590Z,616.07
2023-03-27T01:16:39.598Z,616.27
2023-03-27T01:16:59.582Z,616.93
2023-03-27T01:17:09.585Z,615.83
2023-03-27T01:17:19.601Z,616.28
2023-03-27T01:17:29.591Z,616.11
2023-03-27T01:17:39.665Z,616.07
2023-03-27T01:17:49.679Z,616.29
2023-03-27T01:17:59.606Z,616.59
2023-03-27T01:18:09.601Z,616.50
2023-03-27T01:18:19.598Z,616.22
2023-03-27T01:18:29.600Z,617.28
2023-03-27T01:18:49.596Z,616.96
2023-03-27T01:18:59.613Z,616.51
2023-03-27T01:19:09.595Z,616.39
2023-03-27T01:19:19.601Z,616.45
2023-03-27T01:19:29.603Z,616.02
2023-03-27T01:19:39.637Z,615.05
2023-03-27T01:19:49.607Z,616.57
2023-03-27T01:19:59.599Z,616.11
2023-03-27T01:20:09.612Z,617.34
2023-03-27T01:20:19.608Z,616.42
2023-03-27T01:20:29.602Z,616.07
2023-03-27T01:20:49.620Z,616.65
2023-03-27T01:20:59.985Z,616.17
2023-03-27T01:21:09.624Z,616.41
2023-03-27T01:21:19.616Z,616.03
2023-03-27T01:21:29.625Z,616.48
2023-03-27T01:21:39.615Z,616.35
2023-03-27T01:21:49.610Z,615.82
2023-03-27T01:21:59.615Z,616.16
2023-03-27T01:22:09.655Z,615.76
2023-03-27T01:22:19.621Z,616.46
2023-03-27T01:22:29.613Z,616.29
2023-03-27T01:22:39.626Z,615.97
2023-03-27T01:22:49.626Z,615.78
2023-03-27T01:22:59.619Z,615.64
2023-03-27T01:23:09.620Z,615.60
2023-03-27T01:23:35.897Z,616.05
2023-03-27T01:23:36.174Z,616.04
2023-03-27T01:23:58.941Z,616.40
2023-03-27T01:23:59.734Z,616.05
2023-03-27T01:24:00.946Z,616.07
2023-03-27T01:24:09.627Z,615.94
2023-03-27T01:24:19.631Z,615.72
2023-03-27T01:24:39.628Z,616.53
2023-03-27T01:24:49.629Z,615.49
2023-03-27T01:24:59.634Z,615.42
2023-03-27T01:25:09.633Z,615.75
2023-03-27T01:25:19.640Z,615.96
2023-03-27T01:25:29.640Z,616.00
2023-03-27T01:25:39.632Z,616.07
2023-03-27T01:25:49.631Z,615.90
2023-03-27T01:25:59.632Z,615.20
2023-03-27T01:26:09.640Z,614.48
2023-03-27T01:26:35.608Z,615.38
2023-03-27T01:26:36.707Z,615.70
2023-03-27T01:26:40.689Z,615.57
2023-03-27T01:26:49.644Z,615.53
2023-03-27T01:26:59.637Z,615.30
2023-03-27T01:27:09.639Z,615.44
2023-03-27T01:27:19.639Z,615.43
2023-03-27T01:27:39.652Z,615.18
2023-03-27T01:27:49.644Z,614.96
2023-03-27T01:27:59.642Z,615.20
2023-03-27T01:28:09.649Z,615.32
2023-03-27T01:28:19.670Z,615.02
2023-03-27T01:28:29.644Z,614.85
2023-03-27T01:28:49.655Z,614.39
2023-03-27T01:28:59.645Z,614.52
2023-03-27T01:29:09.654Z,615.18
2023-03-27T01:29:19.654Z,614.66
2023-03-27T01:29:29.656Z,615.40
2023-03-27T01:29:39.670Z,615.36
2023-03-27T01:29:59.654Z,612.29
2023-03-27T01:30:09.658Z,614.45
2023-03-27T01:30:19.670Z,615.24
2023-03-27T01:30:29.672Z,615.30
2023-03-27T01:30:39.651Z,613.80
2023-03-27T01:30:49.652Z,615.18
2023-03-27T01:30:59.829Z,614.27
2023-03-27T01:31:09.711Z,614.74
2023-03-27T01:31:19.747Z,614.25
2023-03-27T01:31:29.680Z,614.51
2023-03-27T01:31:39.713Z,614.00
2023-03-27T01:31:49.708Z,614.55
2023-03-27T01:31:59.663Z,614.69
2023-03-27T01:32:09.660Z,614.12
2023-03-27T01:32:19.668Z,613.85
2023-03-27T01:32:29.692Z,614.68
2023-03-27T01:32:39.753Z,614.55
2023-03-27T01:32:49.755Z,614.65
2023-03-27T01:32:59.761Z,614.76
2023-03-27T01:33:09.740Z,613.47
2023-03-27T01:33:19.675Z,614.04
2023-03-27T01:33:29.679Z,613.71
2023-03-27T01:33:49.675Z,613.96
2023-03-27T01:33:59.682Z,614.45
2023-03-27T01:34:09.670Z,614.81
2023-03-27T01:34:19.684Z,614.33
2023-03-27T01:34:29.700Z,614.81
2023-03-27T01:34:39.677Z,613.86
2023-03-27T01:35:01.476Z,614.28
2023-03-27T01:35:02.082Z,613.79
2023-03-27T01:35:09.685Z,614.12
2023-03-27T01:35:19.715Z,613.87
2023-03-27T01:35:29.718Z,613.91
2023-03-27T01:35:39.704Z,613.81
2023-03-27T01:35:49.704Z,614.16
2023-03-27T01:36:09.702Z,613.69
2023-03-27T01:36:19.690Z,613.77
2023-03-27T01:36:29.693Z,613.65
2023-03-27T01:36:39.691Z,614.28
2023-03-27T01:36:49.714Z,614.20
2023-03-27T01:36:59.688Z,613.63
2023-03-27T01:37:09.688Z,614.04
2023-03-27T01:37:19.701Z,614.43
2023-03-27T01:37:29.697Z,613.21
2023-03-27T01:37:39.694Z,613.79
2023-03-27T01:37:49.695Z,614.46
2023-03-27T01:37:59.692Z,613.95
2023-03-27T01:38:09.701Z,613.48
2023-03-27T01:38:19.694Z,613.53
2023-03-27T01:38:29.705Z,613.72
2023-03-27T01:38:39.691Z,613.23
2023-03-27T01:38:49.692Z,613.68
2023-03-27T01:38:59.699Z,613.72
2023-03-27T01:39:09.701Z,613.46
2023-03-27T01:39:19.717Z,613.64
2023-03-27T01:39:29.705Z,613.43
2023-03-27T01:39:39.726Z,613.15
2023-03-27T01:39:49.709Z,613.10
2023-03-27T01:39:59.704Z,612.80
2023-03-27T01:40:09.706Z,612.67
2023-03-27T01:40:19.709Z,613.09
2023-03-27T01:40:29.725Z,612.32
2023-03-27T01:40:49.707Z,613.22
2023-03-27T01:40:59.711Z,612.69
2023-03-27T01:41:09.713Z,612.08
2023-03-27T01:41:19.709Z,610.41
2023-03-27T01:41:29.717Z,612.74
2023-03-27T01:41:39.729Z,611.93
2023-03-27T01:41:49.725Z,612.87
2023-03-27T01:41:59.717Z,612.22
2023-03-27T01:42:09.715Z,612.27
2023-03-27T01:42:19.722Z,611.81
2023-03-27T01:42:39.725Z,612.24
2023-03-27T01:42:49.722Z,612.63
2023-03-27T01:42:59.724Z,613.10
2023-03-27T01:43:09.726Z,612.17
2023-03-27T01:43:19.717Z,611.86
2023-03-27T01:43:29.722Z,611.64
2023-03-27T01:43:39.717Z,611.77
2023-03-27T01:43:49.725Z,611.75
2023-03-27T01:43:59.727Z,611.30
2023-03-27T01:44:09.728Z,611.51
2023-03-27T01:44:43.494Z,612.44
2023-03-27T01:44:44.014Z,612.86
2023-03-27T01:44:49.728Z,612.04
2023-03-27T01:44:59.726Z,612.31
2023-03-27T01:45:09.724Z,610.72
2023-03-27T01:45:19.720Z,611.46
2023-03-27T01:45:29.749Z,612.44
2023-03-27T01:45:49.730Z,611.84
2023-03-27T01:45:59.728Z,613.03
2023-03-27T01:46:09.766Z,612.06
2023-03-27T01:46:19.751Z,612.47
2023-03-27T01:46:29.764Z,612.19
2023-03-27T01:46:39.787Z,611.46
2023-03-27T01:46:49.774Z,611.64
2023-03-27T01:46:59.754Z,612.11
2023-03-27T01:47:09.758Z,612.64
2023-03-27T01:47:19.738Z,612.32
2023-03-27T01:47:29.751Z,611.78
2023-03-27T01:47:39.771Z,612.20
2023-03-27T01:47:59.804Z,612.14
2023-03-27T01:48:09.735Z,611.17
2023-03-27T01:48:19.747Z,611.23
2023-03-27T01:48:29.742Z,612.13
2023-03-27T01:48:39.742Z,610.69
2023-03-27T01:48:49.735Z,611.90
2023-03-27T01:48:59.739Z,611.67
2023-03-27T01:49:09.744Z,610.75
2023-03-27T01:49:19.741Z,611.59
2023-03-27T01:49:29.743Z,611.50
2023-03-27T01:49:39.747Z,611.65
2023-03-27T01:49:49.744Z,611.43
2023-03-27T01:49:59.761Z,612.40
2023-03-27T01:50:09.747Z,611.78
2023-03-27T01:50:19.752Z,612.15
2023-03-27T01:50:29.750Z,611.82
2023-03-27T01:50:39.750Z,611.50
2023-03-27T01:50:49.756Z,611.63
2023-03-27T01:50:59.776Z,611.49
2023-03-27T01:51:09.757Z,611.93
2023-03-27T01:51:19.750Z,612.03
2023-03-27T01:51:39.751Z,611.48
2023-03-27T01:51:49.755Z,611.42
2023-03-27T01:51:59.754Z,611.50
2023-03-27T01:52:09.755Z,611.48
2023-03-27T01:52:19.752Z,611.68
2023-03-27T01:52:29.757Z,611.58
2023-03-27T01:52:39.756Z,610.66
2023-03-27T01:52:49.769Z,610.98
2023-03-27T01:52:59.760Z,611.25
2023-03-27T01:53:09.759Z,611.19
2023-03-27T01:53:19.756Z,611.36
2023-03-27T01:53:29.765Z,610.84
2023-03-27T01:53:39.802Z,611.42
2023-03-27T01:53:59.759Z,611.60
2023-03-27T01:54:09.768Z,611.07
2023-03-27T01:54:19.771Z,610.68
2023-03-27T01:54:29.768Z,610.59
2023-03-27T01:54:39.761Z,611.20
2023-03-27T01:54:49.770Z,610.67
2023-03-27T01:54:59.774Z,610.71
2023-03-27T01:55:09.814Z,611.13
2023-03-27T01:55:19.771Z,611.48
2023-03-27T01:55:29.768Z,611.04
2023-03-27T01:55:39.771Z,610.85
2023-03-27T01:55:49.780Z,611.00
2023-03-27T01:55:59.778Z,610.87
2023-03-27T01:56:09.771Z,611.08
2023-03-27T01:56:19.761Z,611.00
2023-03-27T01:56:29.773Z,610.84
2023-03-27T01:56:39.803Z,609.84
2023-03-27T01:56:49.800Z,610.20
2023-03-27T01:56:59.866Z,611.86
2023-03-27T01:57:09.863Z,611.51
2023-03-27T01:57:19.787Z,611.83
2023-03-27T01:57:29.789Z,611.07
2023-03-27T01:57:49.698Z,611.06
2023-03-27T01:57:50.794Z,611.56
2023-03-27T01:58:09.784Z,611.33
2023-03-27T01:58:19.780Z,610.60
2023-03-27T01:58:29.781Z,611.13
2023-03-27T01:58:39.786Z,611.49
2023-03-27T01:58:49.787Z,611.05
2023-03-27T01:58:59.793Z,611.04
2023-03-27T01:59:09.783Z,610.61
2023-03-27T01:59:19.790Z,610.30
2023-03-27T01:59:29.794Z,610.08
2023-03-27T01:59:39.805Z,611.04
2023-03-27T01:59:49.793Z,610.58
2023-03-27T02:00:17.525Z,609.58
2023-03-27T02:00:18.206Z,610.21
2023-03-27T02:00:20.797Z,610.86
2023-03-27T02:00:51.370Z,611.12
2023-03-27T02:00:51.856Z,610.42
2023-03-27T02:00:53.047Z,611.17
2023-03-27T02:00:59.797Z,610.20
2023-03-27T02:01:19.838Z,610.81
2023-03-27T02:01:29.839Z,610.05
2023-03-27T02:01:39.877Z,611.16
2023-03-27T02:01:49.825Z,610.74
2023-03-27T02:01:59.805Z,610.31
2023-03-27T02:02:09.836Z,610.62
2023-03-27T02:02:19.809Z,610.20
2023-03-27T02:02:39.849Z,609.81
2023-03-27T02:02:49.849Z,610.05
2023-03-27T02:02:59.859Z,609.53
2023-03-27T02:03:09.807Z,610.24
2023-03-27T02:03:19.802Z,609.78
2023-03-27T02:03:29.807Z,610.90
2023-03-27T02:03:39.803Z,610.05
2023-03-27T02:03:59.809Z,610.00
2023-03-27T02:04:09.808Z,609.80
2023-03-27T02:04:19.876Z,610.09
2023-03-27T02:04:29.831Z,609.65
2023-03-27T02:04:39.847Z,609.64
2023-03-27T02:04:49.844Z,609.98
2023-03-27T02:04:59.868Z,609.75
2023-03-27T02:05:09.872Z,609.47
2023-03-27T02:05:19.816Z,609.63
2023-03-27T02:05:29.818Z,610.19
2023-03-27T02:05:39.819Z,609.45
2023-03-27T02:05:49.817Z,609.32
2023-03-27T02:05:59.821Z,609.38
2023-03-27T02:06:09.820Z,608.84
2023-03-27T02:06:19.823Z,609.41
2023-03-27T02:06:29.828Z,610.05
2023-03-27T02:06:39.819Z,609.92
2023-03-27T02:06:59.819Z,609.22
2023-03-27T02:07:09.825Z,609.55
2023-03-27T02:07:19.849Z,609.64
2023-03-27T02:07:29.829Z,609.62
2023-03-27T02:07:39.830Z,608.79
2023-03-27T02:07:49.840Z,609.16
2023-03-27T02:07:59.847Z,609.32
2023-03-27T02:08:09.835Z,608.97
2023-03-27T02:08:19.832Z,609.03
2023-03-27T02:08:29.860Z,608.92
2023-03-27T02:08:39.834Z,608.97
2023-03-27T02:08:49.834Z,609.23
2023-03-27T02:09:09.838Z,608.83
2023-03-27T02:09:19.835Z,608.93
2023-03-27T02:09:29.836Z,609.25
2023-03-27T02:09:39.853Z,609.16
2023-03-27T02:09:49.829Z,609.12
2023-03-27T02:09:59.834Z,609.13
2023-03-27T02:10:09.837Z,609.01
2023-03-27T02:10:19.848Z,608.85
2023-03-27T02:10:29.843Z,608.70
2023-03-27T02:10:49.843Z,608.16
2023-03-27T02:10:59.848Z,608.42
2023-03-27T02:11:09.848Z,608.21
2023-03-27T02:11:19.848Z,607.67
2023-03-27T02:11:29.844Z,608.04
2023-03-27T02:11:39.843Z,608.10
2023-03-27T02:11:49.858Z,608.20
2023-03-27T02:11:59.851Z,608.20
2023-03-27T02:12:09.920Z,608.13
2023-03-27T02:12:19.861Z,608.14
2023-03-27T02:12:29.860Z,607.91
2023-03-27T02:12:39.852Z,608.05
2023-03-27T02:12:49.853Z,608.10
2023-03-27T02:12:59.861Z,608.33
2023-03-27T02:13:19.893Z,607.79